Ebetsu, Japan
Current Conditions -  °F | °C
As of 5:00 PM on Wednesday 22 Oct 2014 (Local Time) from RJCC Reporting Station
Few Clouds Few Clouds  
Wind Chill: 38°   Ceiling: Unl
Heat Index: 43°   Visibility: 6mi
Dew Point: 27°   Wind: 8mph
Humidity: 53%   Direction: 340°NNW
Pressure: 30.06"   Gusts: NA
Location:  43.12°N, 141.55°E
Report Text: RJCC 220800Z 34007KT 9999 FEW050 06/M03 Q1018
Loading
Personal Weather Stations






























Interactive Weather Map
Tropical Storm Tracking
New forecast layout! Learn more

10-Day Weather Forecast

Advertisements
Track Severe Weather on mobile